Detall de PIREP

Printer-friendly versionPDF version

[2014/09/26 09:12:00]
Flight IATA:CT3209
Pilot Number:042
Company ICAO:CAT
Aircraft Type:B463/A
PAX:22
Aircraft Registration:PAX
Departing Airport: EBBR
Destination Airport: LEPA
Alternate Airport:LEBL
Online: VATSIM
Route:CIV UN872 KOVIN UM728 RESMI UN857 DIRMO UN855 PPG UP84 LORES
Flight Level:F330
No Slew and time accel
No pause
Crash detect
Detect pilot in Cockpit between each 30 and 45 minutes
09:12 Zero fuel Weight: 80445 Lbs, Fuel Weight: 22594 Lbs
09:12 VATSIM:EBBR 260750Z 23011KT 9999 BKN038 14/11 Q1024 NOSIG
09:12 VATSIM:LEPA 260800Z 08003KT 9999 FEW025 20/14 Q1023 NOSIG
09:16 Parking Brakes off
09:25 Take-off
09:25 Take off Weight: 101711 Lbs
09:25 Wind: 229º @ 011 Knots Heading: 243º
09:25 POS N50º 54´ 18´´ E004º 28´ 40´´
09:25 Flaps:1 at 164 Knots
09:25 Gear Up: 160 Knots
09:26 Flaps:0 at 137 Knots
09:40 Wind:283º@025 Knots Heading: 207º Ground Speed: 329 Knots Altitude 21778 ft
09:50 TOC
09:50 Fuel Weight: 17520 Lb
09:55 Wind:000º@019 Knots Heading: 214º Ground Speed: 428 Knots Altitude 33375 ft
10:10 Wind:045º@029 Knots Heading: 153º Ground Speed: 421 Knots Altitude 33405 ft
10:25 Wind:064º@041 Knots Heading: 173º Ground Speed: 427 Knots Altitude 33372 ft
10:40 Wind:079º@051 Knots Heading: 172º Ground Speed: 416 Knots Altitude 33343 ft
10:55 Wind:085º@056 Knots Heading: 175º Ground Speed: 415 Knots Altitude 33316 ft
10:59 TOD
10:59 Fuel Weight: 13015 Lb
11:10 Wind:074º@025 Knots Heading: 146º Ground Speed: 289 Knots Altitude 20479 ft
11:19 Flaps:1 at 225 Knots
11:20 Flaps:2 at 224 Knots
11:23 Gear Down: 173 Knots
11:24 Flaps:3 at 175 Knots
11:24 Flaps:4 at 167 Knots
11:25 Wind:043º@008 Knots Heading: 057º Ground Speed: 139 Knots Altitude 1833 ft
11:27 TouchDown:Rate -60 ft/min Speed: 121 Knots
11:28 VATSIM:LEPA 261000Z 09006KT 050V130 9999 FEW025 24/14 Q1023 NOSIG
11:28 Land
11:28 Wind:089º@006 Knots
11:28 Heading: 064º
11:28 Flight Duration: 02:03
11:28 Landing Weight: 92334 Lbs
11:28 POS N39º 33´ 25´´ E002º 43´ 54´´
11:33 Parking brakes on
11:33 Block to Block Duration: 02:17
11:33 Final Fuel: 11296 Lbls
11:33 Spent Fuel: 11298 Lbls
11:33 Flight Length: 741 NM
11:33 TOD Land Length: 129 NM

Exportar CSV

Powered by Drupal - Modified by Danger4k